Terminal Aerodrome Forecast
Issued by NWS

Home | Current Version | Previous Version | Text Only | Print | Product List | Glossary On
Versions: 1 2 3 4 5 6 7 8 9 10 11 12 13 14 15 16
000
FTUS42 KMLB 301218 AAA
TAFTIX
TAF AMD
KTIX 301218Z 3012/3112 14008KT 6SM -RA VCTS SCT015CB BKN100 OVC250
      TEMPO 3012/3014 2SM +TSRA BKN015CB
     FM301400 15010KT P6SM VCTS SCT020CB BKN035 OVC060
      TEMPO 3014/3017 3SM TSRA BKN020CB OVC050
     FM301700 14012KT 6SM -RA VCTS BKN030CB OVC100
     FM310100 13007KT P6SM VCSH SCT020 BKN050 OVC250=

USA.gov is the U.S. government's official web portal to all federal, state and local government web resources and services.